N4088X SLOR-SLOR
Flight info
| Callsign | N4088X |
|---|---|
| Flight time | 1h 23m |
| Altitude | 15000 |
| Route | SLOR |
| Aircraft | EXPL/L-SDFGY/L |
Departure
| Time | 2026-04-11 19:37 |
|---|---|
| Airport | Juan Mendoza International Airport (SLOR) |
Arrival
| Time | 2026-04-11 21:01 |
|---|---|
| Airport | Juan Mendoza International Airport (SLOR) |
| Time | Latitude | Longitude | Altitude | Speed | Heading |
|---|---|---|---|---|---|
| 2026-04-11 18:20 | -17.96174 | -67.07828 | 12192 ft | 0 kts | 272° |
| 2026-04-11 19:33 | -17.96173 | -67.07819 | 12202 ft | 1 kts | 289° |
| 2026-04-11 19:33 | -17.96160 | -67.07831 | 12208 ft | 5 kts | 74° |
| 2026-04-11 19:34 | -17.96148 | -67.07827 | 12203 ft | 2 kts | 103° |
| 2026-04-11 19:34 | -17.96147 | -67.07812 | 12202 ft | 2 kts | 92° |
| 2026-04-11 19:34 | -17.96147 | -67.07804 | 12193 ft | 0 kts | 87° |
| 2026-04-11 19:34 | -17.96147 | -67.07803 | 12192 ft | 0 kts | 89° |
| 2026-04-11 19:35 | -17.96145 | -67.07801 | 12208 ft | 2 kts | 94° |
| 2026-04-11 19:36 | -17.96131 | -67.07800 | 12334 ft | 8 kts | 94° |
| 2026-04-11 19:36 | -17.96110 | -67.07767 | 12432 ft | 6 kts | 63° |
| 2026-04-11 19:36 | -17.96108 | -67.07727 | 12377 ft | 3 kts | 85° |
| 2026-04-11 19:37 | -17.96090 | -67.07713 | 12370 ft | 4 kts | 138° |
| 2026-04-11 19:37 | -17.96275 | -67.07834 | 12532 ft | 58 kts | 185° |
| 2026-04-11 19:37 | -17.96798 | -67.07931 | 12790 ft | 94 kts | 181° |
| 2026-04-11 19:37 | -17.97493 | -67.08061 | 13035 ft | 105 kts | 188° |
| 2026-04-11 19:38 | -17.98008 | -67.08166 | 13702 ft | 63 kts | 152° |
| 2026-04-11 19:38 | -17.98620 | -67.07839 | 13651 ft | 126 kts | 152° |
| 2026-04-11 19:38 | -17.99540 | -67.07616 | 13614 ft | 134 kts | 178° |
| 2026-04-11 19:38 | -18.00447 | -67.07699 | 13668 ft | 125 kts | 173° |
| 2026-04-11 19:39 | -18.01354 | -67.07581 | 13652 ft | 134 kts | 167° |
| 2026-04-11 19:39 | -18.02297 | -67.07497 | 13712 ft | 137 kts | 172° |
| 2026-04-11 19:39 | -18.03259 | -67.07404 | 13705 ft | 142 kts | 171° |
| 2026-04-11 19:39 | -18.04243 | -67.07099 | 13574 ft | 149 kts | 162° |
| 2026-04-11 19:40 | -18.05165 | -67.06644 | 13531 ft | 144 kts | 145° |
| 2026-04-11 19:40 | -18.05961 | -67.05981 | 13542 ft | 142 kts | 133° |
| 2026-04-11 19:40 | -18.06491 | -67.05064 | 13378 ft | 153 kts | 114° |
| 2026-04-11 19:40 | -18.06994 | -67.04080 | 13287 ft | 148 kts | 123° |
| 2026-04-11 19:41 | -18.07616 | -67.03245 | 13337 ft | 141 kts | 130° |
| 2026-04-11 19:41 | -18.08257 | -67.02436 | 13370 ft | 141 kts | 133° |
| 2026-04-11 19:41 | -18.09034 | -67.01826 | 13319 ft | 143 kts | 144° |
| 2026-04-11 19:41 | -18.09747 | -67.01121 | 13176 ft | 137 kts | 131° |
| 2026-04-11 19:42 | -18.10536 | -67.00827 | 13159 ft | 136 kts | 179° |
| 2026-04-11 19:42 | -18.11400 | -67.00606 | 13184 ft | 129 kts | 153° |
| 2026-04-11 19:42 | -18.12095 | -66.99973 | 13164 ft | 134 kts | 135° |
| 2026-04-11 19:42 | -18.12714 | -66.99184 | 13159 ft | 143 kts | 123° |
| 2026-04-11 19:43 | -18.13392 | -66.98412 | 13098 ft | 147 kts | 142° |
| 2026-04-11 19:43 | -18.14257 | -66.97887 | 13219 ft | 136 kts | 162° |
| 2026-04-11 19:43 | -18.15172 | -66.97596 | 13265 ft | 136 kts | 152° |
| 2026-04-11 19:43 | -18.15974 | -66.97004 | 13115 ft | 144 kts | 139° |
| 2026-04-11 19:44 | -18.16624 | -66.96275 | 13104 ft | 136 kts | 119° |
| 2026-04-11 19:44 | -18.17178 | -66.95479 | 13084 ft | 130 kts | 128° |
| 2026-04-11 19:44 | -18.17779 | -66.94769 | 13070 ft | 128 kts | 129° |
| 2026-04-11 19:44 | -18.18356 | -66.94089 | 13119 ft | 127 kts | 129° |
| 2026-04-11 19:45 | -18.18944 | -66.93394 | 13154 ft | 125 kts | 134° |
| 2026-04-11 19:45 | -18.19573 | -66.92725 | 13139 ft | 125 kts | 129° |
| 2026-04-11 19:45 | -18.20206 | -66.92086 | 13226 ft | 124 kts | 139° |
| 2026-04-11 19:45 | -18.20941 | -66.91550 | 13176 ft | 132 kts | 143° |
| 2026-04-11 19:46 | -18.21707 | -66.91081 | 13283 ft | 124 kts | 151° |
| 2026-04-11 19:46 | -18.22500 | -66.90691 | 13334 ft | 127 kts | 153° |
| 2026-04-11 19:46 | -18.23290 | -66.90321 | 13549 ft | 118 kts | 158° |
| 2026-04-11 19:46 | -18.24094 | -66.90080 | 13618 ft | 128 kts | 160° |
| 2026-04-11 19:47 | -18.24784 | -66.89671 | 13991 ft | 113 kts | 136° |
| 2026-04-11 19:47 | -18.25405 | -66.88984 | 13748 ft | 146 kts | 126° |
| 2026-04-11 19:47 | -18.25960 | -66.88062 | 13429 ft | 151 kts | 117° |
| 2026-04-11 19:47 | -18.26549 | -66.87196 | 13279 ft | 140 kts | 133° |
| 2026-04-11 19:48 | -18.27290 | -66.86543 | 13397 ft | 134 kts | 142° |
| 2026-04-11 19:48 | -18.28105 | -66.86075 | 13542 ft | 130 kts | 156° |
| 2026-04-11 19:48 | -18.28965 | -66.85735 | 13632 ft | 130 kts | 162° |
| 2026-04-11 19:48 | -18.29825 | -66.85416 | 13673 ft | 133 kts | 161° |
| 2026-04-11 19:49 | -18.30727 | -66.85309 | 13580 ft | 140 kts | 180° |
| 2026-04-11 19:49 | -18.31642 | -66.85414 | 13794 ft | 115 kts | 193° |
| 2026-04-11 19:49 | -18.32460 | -66.85559 | 13935 ft | 118 kts | 189° |
| 2026-04-11 19:49 | -18.33288 | -66.85609 | 14074 ft | 123 kts | 182° |
| 2026-04-11 19:50 | -18.34117 | -66.85465 | 14177 ft | 125 kts | 162° |
| 2026-04-11 19:50 | -18.34918 | -66.84929 | 13889 ft | 142 kts | 139° |
| 2026-04-11 19:50 | -18.35682 | -66.84235 | 13853 ft | 148 kts | 142° |
| 2026-04-11 19:50 | -18.36504 | -66.83588 | 13857 ft | 144 kts | 142° |
| 2026-04-11 19:51 | -18.37106 | -66.82861 | 14326 ft | 130 kts | 123° |
| 2026-04-11 19:51 | -18.37598 | -66.82009 | 14453 ft | 141 kts | 124° |
| 2026-04-11 19:51 | -18.38238 | -66.81182 | 14369 ft | 155 kts | 146° |
| 2026-04-11 19:51 | -18.39177 | -66.80645 | 14185 ft | 155 kts | 150° |
| 2026-04-11 19:52 | -18.40070 | -66.80156 | 14316 ft | 128 kts | 155° |
| 2026-04-11 19:52 | -18.41001 | -66.79821 | 14059 ft | 145 kts | 160° |
| 2026-04-11 19:52 | -18.41950 | -66.79559 | 14063 ft | 139 kts | 172° |
| 2026-04-11 19:52 | -18.42902 | -66.79581 | 14171 ft | 133 kts | 176° |
| 2026-04-11 19:53 | -18.43840 | -66.79422 | 14152 ft | 136 kts | 176° |
| 2026-04-11 19:53 | -18.44794 | -66.79470 | 14063 ft | 141 kts | 188° |
| 2026-04-11 19:53 | -18.45771 | -66.79640 | 14066 ft | 138 kts | 193° |
| 2026-04-11 19:53 | -18.46700 | -66.79655 | 14280 ft | 132 kts | 180° |
| 2026-04-11 19:54 | -18.47664 | -66.79597 | 14341 ft | 141 kts | 176° |
| 2026-04-11 19:54 | -18.48641 | -66.79372 | 14336 ft | 146 kts | 168° |
| 2026-04-11 19:54 | -18.49669 | -66.79159 | 14228 ft | 149 kts | 172° |
| 2026-04-11 19:54 | -18.50694 | -66.79007 | 14157 ft | 148 kts | 176° |
| 2026-04-11 19:55 | -18.51611 | -66.79368 | 14294 ft | 132 kts | 220° |
| 2026-04-11 19:55 | -18.52185 | -66.80028 | 14684 ft | 118 kts | 233° |
| 2026-04-11 19:55 | -18.52690 | -66.80730 | 14952 ft | 121 kts | 235° |
| 2026-04-11 19:55 | -18.53246 | -66.81454 | 15032 ft | 136 kts | 231° |
| 2026-04-11 19:56 | -18.54039 | -66.82114 | 14678 ft | 159 kts | 205° |
| 2026-04-11 19:56 | -18.55103 | -66.82523 | 14161 ft | 165 kts | 195° |
| 2026-04-11 19:56 | -18.56163 | -66.82910 | 13662 ft | 158 kts | 198° |
| 2026-04-11 19:56 | -18.57115 | -66.83366 | 13499 ft | 143 kts | 213° |
| 2026-04-11 19:57 | -18.57476 | -66.84251 | 13458 ft | 136 kts | 268° |
| 2026-04-11 19:57 | -18.57533 | -66.85264 | 13286 ft | 140 kts | 261° |
| 2026-04-11 19:57 | -18.57520 | -66.86289 | 13175 ft | 138 kts | 278° |
| 2026-04-11 19:57 | -18.57466 | -66.87229 | 13391 ft | 128 kts | 256° |
| 2026-04-11 19:58 | -18.58133 | -66.87884 | 13420 ft | 138 kts | 201° |
| 2026-04-11 19:58 | -18.59085 | -66.88082 | 13451 ft | 141 kts | 191° |
| 2026-04-11 19:58 | -18.60019 | -66.88353 | 13464 ft | 140 kts | 199° |
| 2026-04-11 19:58 | -18.60938 | -66.88744 | 13438 ft | 141 kts | 207° |
| 2026-04-11 19:59 | -18.61802 | -66.89206 | 13459 ft | 140 kts | 205° |
| 2026-04-11 19:59 | -18.62784 | -66.89368 | 13394 ft | 144 kts | 181° |
| 2026-04-11 19:59 | -18.63799 | -66.89381 | 13323 ft | 145 kts | 180° |
| 2026-04-11 19:59 | -18.64798 | -66.89378 | 13285 ft | 143 kts | 181° |
| 2026-04-11 20:00 | -18.65800 | -66.89416 | 13275 ft | 141 kts | 185° |
| 2026-04-11 20:00 | -18.66704 | -66.89482 | 13731 ft | 107 kts | 187° |
| 2026-04-11 20:00 | -18.67349 | -66.89545 | 14371 ft | 98 kts | 191° |
| 2026-04-11 20:00 | -18.68024 | -66.89668 | 14860 ft | 101 kts | 194° |
| 2026-04-11 20:01 | -18.68706 | -66.89759 | 15400 ft | 102 kts | 179° |
| 2026-04-11 20:01 | -18.69467 | -66.89706 | 15506 ft | 125 kts | 162° |
| 2026-04-11 20:01 | -18.70389 | -66.89449 | 15129 ft | 143 kts | 161° |
| 2026-04-11 20:01 | -18.71328 | -66.89168 | 14912 ft | 137 kts | 170° |
| 2026-04-11 20:02 | -18.72052 | -66.88950 | 15395 ft | 79 kts | 138° |
| 2026-04-11 20:02 | -18.72583 | -66.88393 | 14726 ft | 150 kts | 127° |
| 2026-04-11 20:02 | -18.73256 | -66.87465 | 13728 ft | 166 kts | 130° |
| 2026-04-11 20:02 | -18.74213 | -66.86919 | 13343 ft | 150 kts | 169° |
| 2026-04-11 20:03 | -18.75205 | -66.86829 | 13241 ft | 138 kts | 177° |
| 2026-04-11 20:03 | -18.76141 | -66.86760 | 13308 ft | 131 kts | 172° |
| 2026-04-11 20:03 | -18.76987 | -66.86407 | 13546 ft | 132 kts | 158° |
| 2026-04-11 20:03 | -18.77779 | -66.85928 | 13589 ft | 136 kts | 152° |
| 2026-04-11 20:04 | -18.78592 | -66.85357 | 13206 ft | 144 kts | 149° |
| 2026-04-11 20:04 | -18.79421 | -66.84845 | 13084 ft | 136 kts | 147° |
| 2026-04-11 20:04 | -18.80162 | -66.84319 | 13086 ft | 127 kts | 146° |
| 2026-04-11 20:04 | -18.80898 | -66.83810 | 13031 ft | 129 kts | 150° |
| 2026-04-11 20:05 | -18.81692 | -66.83334 | 13020 ft | 129 kts | 153° |
| 2026-04-11 20:05 | -18.82489 | -66.82897 | 13167 ft | 131 kts | 157° |
| 2026-04-11 20:05 | -18.83358 | -66.82464 | 13222 ft | 141 kts | 157° |
| 2026-04-11 20:05 | -18.84285 | -66.82024 | 13183 ft | 147 kts | 158° |
| 2026-04-11 20:06 | -18.85131 | -66.81480 | 13362 ft | 139 kts | 153° |
| 2026-04-11 20:06 | -18.86033 | -66.80972 | 13116 ft | 150 kts | 147° |
| 2026-04-11 20:06 | -18.86853 | -66.80534 | 13213 ft | 128 kts | 163° |
| 2026-04-11 20:06 | -18.87748 | -66.80234 | 13196 ft | 131 kts | 162° |
| 2026-04-11 20:07 | -18.88597 | -66.79829 | 13365 ft | 138 kts | 152° |
| 2026-04-11 20:07 | -18.89473 | -66.79427 | 13491 ft | 140 kts | 162° |
| 2026-04-11 20:07 | -18.90466 | -66.79353 | 13396 ft | 148 kts | 188° |
| 2026-04-11 20:07 | -18.91498 | -66.79496 | 13279 ft | 150 kts | 183° |
| 2026-04-11 20:08 | -18.92527 | -66.79549 | 13233 ft | 147 kts | 179° |
| 2026-04-11 20:08 | -18.93539 | -66.79709 | 13237 ft | 145 kts | 194° |
| 2026-04-11 20:08 | -18.94480 | -66.80093 | 13179 ft | 146 kts | 201° |
| 2026-04-11 20:08 | -18.95380 | -66.80554 | 13235 ft | 144 kts | 211° |
| 2026-04-11 20:09 | -18.96216 | -66.81151 | 13222 ft | 143 kts | 216° |
| 2026-04-11 20:09 | -18.97046 | -66.81738 | 13252 ft | 143 kts | 212° |
| 2026-04-11 20:09 | -18.97899 | -66.82145 | 13571 ft | 132 kts | 202° |
| 2026-04-11 20:09 | -18.98753 | -66.82459 | 13795 ft | 133 kts | 200° |
| 2026-04-11 20:10 | -18.99619 | -66.82858 | 13867 ft | 140 kts | 206° |
| 2026-04-11 20:10 | -18.99917 | -66.83002 | 13836 ft | 143 kts | 204° |
| 2026-04-11 20:11 | -19.03471 | -66.84379 | 13347 ft | 151 kts | 201° |
| 2026-04-11 20:11 | -19.04414 | -66.84811 | 13373 ft | 142 kts | 205° |
| 2026-04-11 20:11 | -19.05295 | -66.85281 | 13412 ft | 142 kts | 211° |
| 2026-04-11 20:11 | -19.05814 | -66.86131 | 13386 ft | 133 kts | 251° |
| 2026-04-11 20:12 | -19.06008 | -66.86991 | 13331 ft | 119 kts | 261° |
| 2026-04-11 20:12 | -19.05923 | -66.87875 | 13356 ft | 124 kts | 281° |
| 2026-04-11 20:12 | -19.05585 | -66.88721 | 13473 ft | 125 kts | 297° |
| 2026-04-11 20:12 | -19.05192 | -66.89584 | 13458 ft | 133 kts | 292° |
| 2026-04-11 20:13 | -19.04820 | -66.90502 | 13385 ft | 134 kts | 287° |
| 2026-04-11 20:13 | -19.04465 | -66.91402 | 13366 ft | 132 kts | 289° |
| 2026-04-11 20:13 | -19.04135 | -66.92312 | 13345 ft | 131 kts | 285° |
| 2026-04-11 20:13 | -19.03865 | -66.93230 | 13411 ft | 133 kts | 284° |
| 2026-04-11 20:14 | -19.03670 | -66.94223 | 13430 ft | 139 kts | 275° |
| 2026-04-11 20:14 | -19.03581 | -66.95255 | 13466 ft | 139 kts | 271° |
| 2026-04-11 20:14 | -19.03515 | -66.96268 | 13481 ft | 141 kts | 273° |
| 2026-04-11 20:14 | -19.03412 | -66.97302 | 13529 ft | 139 kts | 274° |
| 2026-04-11 20:15 | -19.03321 | -66.98332 | 13485 ft | 144 kts | 271° |
| 2026-04-11 20:15 | -19.03332 | -66.99375 | 13464 ft | 142 kts | 265° |
| 2026-04-11 20:15 | -19.03377 | -67.00408 | 13540 ft | 137 kts | 265° |
| 2026-04-11 20:15 | -19.03447 | -67.01419 | 13598 ft | 138 kts | 263° |
| 2026-04-11 20:16 | -19.03559 | -67.02416 | 13695 ft | 136 kts | 262° |
| 2026-04-11 20:16 | -19.03663 | -67.03424 | 13719 ft | 139 kts | 262° |
| 2026-04-11 20:16 | -19.03864 | -67.04433 | 13691 ft | 141 kts | 253° |
| 2026-04-11 20:16 | -19.04084 | -67.05431 | 13670 ft | 144 kts | 256° |
| 2026-04-11 20:17 | -19.04346 | -67.06486 | 13471 ft | 152 kts | 250° |
| 2026-04-11 20:17 | -19.04679 | -67.07555 | 13284 ft | 150 kts | 249° |
| 2026-04-11 20:17 | -19.05049 | -67.08558 | 13229 ft | 146 kts | 243° |
| 2026-04-11 20:17 | -19.05496 | -67.09528 | 13171 ft | 147 kts | 243° |
| 2026-04-11 20:18 | -19.05973 | -67.10474 | 13163 ft | 144 kts | 240° |
| 2026-04-11 20:18 | -19.06461 | -67.11374 | 13187 ft | 142 kts | 236° |
| 2026-04-11 20:18 | -19.07033 | -67.12250 | 13176 ft | 143 kts | 232° |
| 2026-04-11 20:18 | -19.07614 | -67.13112 | 13187 ft | 142 kts | 232° |
| 2026-04-11 20:19 | -19.08209 | -67.13925 | 13239 ft | 141 kts | 231° |
| 2026-04-11 20:19 | -19.08820 | -67.14743 | 13259 ft | 142 kts | 230° |
| 2026-04-11 20:19 | -19.09436 | -67.15547 | 13376 ft | 136 kts | 230° |
| 2026-04-11 20:19 | -19.09950 | -67.16363 | 13528 ft | 134 kts | 240° |
| 2026-04-11 20:20 | -19.10201 | -67.17329 | 13597 ft | 137 kts | 264° |
| 2026-04-11 20:20 | -19.10051 | -67.18328 | 13629 ft | 142 kts | 287° |
| 2026-04-11 20:20 | -19.09548 | -67.19250 | 13492 ft | 149 kts | 307° |
| 2026-04-11 20:20 | -19.08712 | -67.19909 | 13425 ft | 148 kts | 327° |
| 2026-04-11 20:21 | -19.07720 | -67.20271 | 13301 ft | 151 kts | 345° |
| 2026-04-11 20:21 | -19.06669 | -67.20435 | 13234 ft | 150 kts | 349° |
| 2026-04-11 20:21 | -19.05625 | -67.20633 | 13128 ft | 151 kts | 347° |
| 2026-04-11 20:21 | -19.04607 | -67.20835 | 13133 ft | 147 kts | 348° |
| 2026-04-11 20:22 | -19.03591 | -67.21041 | 13111 ft | 147 kts | 347° |
| 2026-04-11 20:22 | -19.02613 | -67.21346 | 13120 ft | 147 kts | 341° |
| 2026-04-11 20:22 | -19.01637 | -67.21711 | 13099 ft | 147 kts | 338° |
| 2026-04-11 20:22 | -19.00719 | -67.22151 | 13175 ft | 143 kts | 327° |
| 2026-04-11 20:23 | -18.99862 | -67.22700 | 13214 ft | 145 kts | 327° |
| 2026-04-11 20:23 | -18.99046 | -67.23322 | 13188 ft | 146 kts | 318° |
| 2026-04-11 20:23 | -18.98248 | -67.23991 | 13184 ft | 145 kts | 319° |
| 2026-04-11 20:23 | -18.97476 | -67.24701 | 13123 ft | 147 kts | 315° |
| 2026-04-11 20:24 | -18.96722 | -67.25439 | 13084 ft | 147 kts | 315° |
| 2026-04-11 20:24 | -18.95958 | -67.26146 | 13082 ft | 146 kts | 319° |
| 2026-04-11 20:24 | -18.95174 | -67.26838 | 13069 ft | 145 kts | 317° |
| 2026-04-11 20:24 | -18.94484 | -67.27624 | 12996 ft | 148 kts | 305° |
| 2026-04-11 20:25 | -18.93933 | -67.28539 | 12965 ft | 147 kts | 298° |
| 2026-04-11 20:25 | -18.93525 | -67.29525 | 12929 ft | 147 kts | 290° |
| 2026-04-11 20:25 | -18.93137 | -67.30535 | 12860 ft | 148 kts | 289° |
| 2026-04-11 20:25 | -18.92747 | -67.31539 | 12857 ft | 146 kts | 293° |
| 2026-04-11 20:26 | -18.92336 | -67.32513 | 12896 ft | 145 kts | 290° |
| 2026-04-11 20:26 | -18.92005 | -67.33507 | 12910 ft | 144 kts | 283° |
| 2026-04-11 20:26 | -18.91756 | -67.34542 | 12871 ft | 145 kts | 281° |
| 2026-04-11 20:26 | -18.91530 | -67.35576 | 12841 ft | 146 kts | 279° |
| 2026-04-11 20:27 | -18.91388 | -67.36636 | 12808 ft | 145 kts | 277° |
| 2026-04-11 20:27 | -18.91207 | -67.37661 | 12856 ft | 142 kts | 279° |
| 2026-04-11 20:27 | -18.91058 | -67.38702 | 12846 ft | 143 kts | 275° |
| 2026-04-11 20:27 | -18.90973 | -67.39754 | 12832 ft | 145 kts | 279° |
| 2026-04-11 20:28 | -18.90927 | -67.40790 | 12917 ft | 136 kts | 269° |
| 2026-04-11 20:28 | -18.91100 | -67.41743 | 12797 ft | 127 kts | 269° |
| 2026-04-11 20:28 | -18.91229 | -67.42622 | 12795 ft | 116 kts | 262° |
| 2026-04-11 20:28 | -18.91403 | -67.43495 | 12796 ft | 126 kts | 260° |
| 2026-04-11 20:29 | -18.91618 | -67.44431 | 12737 ft | 126 kts | 257° |
| 2026-04-11 20:29 | -18.91796 | -67.45371 | 12819 ft | 135 kts | 256° |
| 2026-04-11 20:29 | -18.92011 | -67.46328 | 12827 ft | 132 kts | 254° |
| 2026-04-11 20:29 | -18.92197 | -67.47277 | 12872 ft | 128 kts | 255° |
| 2026-04-11 20:30 | -18.92694 | -67.48074 | 12858 ft | 131 kts | 237° |
| 2026-04-11 20:30 | -18.93021 | -67.48987 | 12911 ft | 134 kts | 245° |
| 2026-04-11 20:30 | -18.93420 | -67.49910 | 12889 ft | 140 kts | 249° |
| 2026-04-11 20:30 | -18.93758 | -67.50877 | 12872 ft | 140 kts | 249° |
| 2026-04-11 20:31 | -18.94194 | -67.51795 | 12945 ft | 136 kts | 244° |
| 2026-04-11 20:31 | -18.94533 | -67.52747 | 12937 ft | 141 kts | 253° |
| 2026-04-11 20:31 | -18.94715 | -67.53745 | 13083 ft | 138 kts | 264° |
| 2026-04-11 20:31 | -18.94735 | -67.54787 | 13045 ft | 143 kts | 272° |
| 2026-04-11 20:32 | -18.94406 | -67.55718 | 13317 ft | 122 kts | 312° |
| 2026-04-11 20:32 | -18.93735 | -67.56269 | 13629 ft | 130 kts | 329° |
| 2026-04-11 20:32 | -18.92970 | -67.56699 | 14029 ft | 119 kts | 330° |
| 2026-04-11 20:32 | -18.92307 | -67.57340 | 13907 ft | 143 kts | 307° |
| 2026-04-11 20:33 | -18.91699 | -67.58192 | 13904 ft | 142 kts | 302° |
| 2026-04-11 20:33 | -18.90865 | -67.58880 | 13295 ft | 166 kts | 321° |
| 2026-04-11 20:33 | -18.90019 | -67.59633 | 12987 ft | 156 kts | 316° |
| 2026-04-11 20:33 | -18.89115 | -67.60265 | 12909 ft | 150 kts | 325° |
| 2026-04-11 20:34 | -18.88194 | -67.60751 | 12954 ft | 145 kts | 332° |
| 2026-04-11 20:34 | -18.87270 | -67.61168 | 12961 ft | 146 kts | 335° |
| 2026-04-11 20:34 | -18.86327 | -67.61599 | 12946 ft | 146 kts | 332° |
| 2026-04-11 20:34 | -18.85418 | -67.62096 | 12920 ft | 147 kts | 328° |
| 2026-04-11 20:35 | -18.84559 | -67.62634 | 12971 ft | 144 kts | 325° |
| 2026-04-11 20:35 | -18.83681 | -67.63129 | 13060 ft | 142 kts | 338° |
| 2026-04-11 20:35 | -18.82720 | -67.63442 | 13112 ft | 145 kts | 351° |
| 2026-04-11 20:35 | -18.81698 | -67.63450 | 13162 ft | 145 kts | 5° |
| 2026-04-11 20:36 | -18.80688 | -67.63264 | 13111 ft | 151 kts | 16° |
| 2026-04-11 20:36 | -18.79695 | -67.62874 | 13093 ft | 147 kts | 24° |
| 2026-04-11 20:36 | -18.78749 | -67.62485 | 13201 ft | 145 kts | 21° |
| 2026-04-11 20:36 | -18.77824 | -67.62067 | 13267 ft | 145 kts | 27° |
| 2026-04-11 20:37 | -18.76920 | -67.61581 | 13359 ft | 145 kts | 27° |
| 2026-04-11 20:37 | -18.75898 | -67.61352 | 13285 ft | 148 kts | 9° |
| 2026-04-11 20:37 | -18.74865 | -67.61213 | 13281 ft | 148 kts | 9° |
| 2026-04-11 20:37 | -18.73850 | -67.61024 | 13292 ft | 148 kts | 12° |
| 2026-04-11 20:38 | -18.72819 | -67.60790 | 13204 ft | 152 kts | 14° |
| 2026-04-11 20:38 | -18.71806 | -67.60506 | 13148 ft | 154 kts | 21° |
| 2026-04-11 20:38 | -18.70855 | -67.60042 | 13145 ft | 149 kts | 22° |
| 2026-04-11 20:38 | -18.69911 | -67.59553 | 13123 ft | 150 kts | 20° |
| 2026-04-11 20:39 | -18.68934 | -67.59135 | 13087 ft | 150 kts | 19° |
| 2026-04-11 20:39 | -18.67974 | -67.58762 | 13156 ft | 145 kts | 17° |
| 2026-04-11 20:39 | -18.66995 | -67.58435 | 13204 ft | 146 kts | 15° |
| 2026-04-11 20:39 | -18.66071 | -67.58137 | 13592 ft | 131 kts | 16° |
| 2026-04-11 20:40 | -18.65227 | -67.57746 | 13771 ft | 142 kts | 26° |
| 2026-04-11 20:40 | -18.64321 | -67.57227 | 13773 ft | 149 kts | 26° |
| 2026-04-11 20:40 | -18.63388 | -67.56709 | 13767 ft | 151 kts | 27° |
| 2026-04-11 20:40 | -18.62434 | -67.56235 | 13779 ft | 150 kts | 21° |
| 2026-04-11 20:41 | -18.61462 | -67.55763 | 13634 ft | 155 kts | 23° |
| 2026-04-11 20:41 | -18.60514 | -67.55247 | 13651 ft | 149 kts | 26° |
| 2026-04-11 20:41 | -18.59626 | -67.54693 | 13717 ft | 147 kts | 30° |
| 2026-04-11 20:41 | -18.58785 | -67.54094 | 13834 ft | 146 kts | 34° |
| 2026-04-11 20:42 | -18.57973 | -67.53449 | 13870 ft | 148 kts | 35° |
| 2026-04-11 20:42 | -18.57112 | -67.52805 | 13806 ft | 153 kts | 32° |
| 2026-04-11 20:42 | -18.56233 | -67.52158 | 13753 ft | 152 kts | 34° |
| 2026-04-11 20:42 | -18.55380 | -67.51496 | 13755 ft | 151 kts | 33° |
| 2026-04-11 20:43 | -18.54520 | -67.50882 | 13766 ft | 151 kts | 33° |
| 2026-04-11 20:43 | -18.53661 | -67.50245 | 13748 ft | 152 kts | 33° |
| 2026-04-11 20:43 | -18.52784 | -67.49586 | 13688 ft | 152 kts | 34° |
| 2026-04-11 20:43 | -18.51939 | -67.48923 | 13705 ft | 151 kts | 35° |
| 2026-04-11 20:44 | -18.51108 | -67.48238 | 13656 ft | 153 kts | 40° |
| 2026-04-11 20:44 | -18.50308 | -67.47495 | 13588 ft | 155 kts | 46° |
| 2026-04-11 20:44 | -18.49558 | -67.46690 | 13523 ft | 153 kts | 48° |
| 2026-04-11 20:44 | -18.48843 | -67.45839 | 13445 ft | 153 kts | 49° |
| 2026-04-11 20:45 | -18.48131 | -67.44988 | 13381 ft | 154 kts | 46° |
| 2026-04-11 20:45 | -18.47331 | -67.44244 | 13296 ft | 153 kts | 40° |
| 2026-04-11 20:45 | -18.46506 | -67.43546 | 13283 ft | 151 kts | 40° |
| 2026-04-11 20:45 | -18.45684 | -67.42857 | 13337 ft | 146 kts | 39° |
| 2026-04-11 20:46 | -18.44884 | -67.42156 | 13240 ft | 153 kts | 42° |
| 2026-04-11 20:46 | -18.44093 | -67.41386 | 13191 ft | 151 kts | 44° |
| 2026-04-11 20:46 | -18.43328 | -67.40607 | 13109 ft | 155 kts | 47° |
| 2026-04-11 20:47 | -18.41953 | -67.38924 | 13113 ft | 151 kts | 53° |
| 2026-04-11 20:47 | -18.41308 | -67.38064 | 13105 ft | 150 kts | 53° |
| 2026-04-11 20:47 | -18.40642 | -67.37214 | 13103 ft | 152 kts | 51° |
| 2026-04-11 20:47 | -18.39955 | -67.36353 | 13056 ft | 152 kts | 50° |
| 2026-04-11 20:48 | -18.39251 | -67.35539 | 13050 ft | 150 kts | 49° |
| 2026-04-11 20:48 | -18.38538 | -67.34740 | 13064 ft | 149 kts | 47° |
| 2026-04-11 20:48 | -18.37811 | -67.33947 | 13063 ft | 150 kts | 47° |
| 2026-04-11 20:48 | -18.37116 | -67.33121 | 13059 ft | 150 kts | 51° |
| 2026-04-11 20:49 | -18.36476 | -67.32269 | 13120 ft | 147 kts | 54° |
| 2026-04-11 20:49 | -18.35867 | -67.31358 | 13059 ft | 152 kts | 57° |
| 2026-04-11 20:49 | -18.35293 | -67.30437 | 13031 ft | 151 kts | 59° |
| 2026-04-11 20:49 | -18.34735 | -67.29497 | 13074 ft | 148 kts | 59° |
| 2026-04-11 20:50 | -18.34127 | -67.28616 | 13077 ft | 151 kts | 56° |
| 2026-04-11 20:50 | -18.33522 | -67.27720 | 13141 ft | 146 kts | 58° |
| 2026-04-11 20:50 | -18.33022 | -67.26783 | 13162 ft | 151 kts | 65° |
| 2026-04-11 20:50 | -18.32566 | -67.25799 | 13153 ft | 152 kts | 68° |
| 2026-04-11 20:51 | -18.32142 | -67.24765 | 13074 ft | 153 kts | 70° |
| 2026-04-11 20:51 | -18.31726 | -67.23747 | 13048 ft | 152 kts | 66° |
| 2026-04-11 20:51 | -18.31083 | -67.22856 | 12978 ft | 153 kts | 49° |
| 2026-04-11 20:51 | -18.30293 | -67.22102 | 12885 ft | 154 kts | 41° |
| 2026-04-11 20:52 | -18.29518 | -67.21326 | 12915 ft | 150 kts | 49° |
| 2026-04-11 20:52 | -18.28857 | -67.20489 | 12998 ft | 148 kts | 51° |
| 2026-04-11 20:52 | -18.28146 | -67.19680 | 12978 ft | 152 kts | 45° |
| 2026-04-11 20:52 | -18.27347 | -67.18948 | 12932 ft | 153 kts | 41° |
| 2026-04-11 20:53 | -18.26482 | -67.18259 | 12846 ft | 156 kts | 37° |
| 2026-04-11 20:53 | -18.25584 | -67.17663 | 12888 ft | 151 kts | 31° |
| 2026-04-11 20:53 | -18.24642 | -67.17135 | 12895 ft | 153 kts | 29° |
| 2026-04-11 20:53 | -18.23721 | -67.16574 | 12859 ft | 155 kts | 32° |
| 2026-04-11 20:54 | -18.22792 | -67.15992 | 12831 ft | 154 kts | 31° |
| 2026-04-11 20:54 | -18.21850 | -67.15428 | 12837 ft | 152 kts | 31° |
| 2026-04-11 20:54 | -18.20933 | -67.14909 | 12923 ft | 149 kts | 31° |
| 2026-04-11 20:54 | -18.19983 | -67.14407 | 12944 ft | 152 kts | 26° |
| 2026-04-11 20:55 | -18.18992 | -67.14003 | 12925 ft | 154 kts | 22° |
| 2026-04-11 20:55 | -18.17976 | -67.13639 | 12942 ft | 153 kts | 18° |
| 2026-04-11 20:55 | -18.16923 | -67.13373 | 12902 ft | 155 kts | 13° |
| 2026-04-11 20:55 | -18.15867 | -67.13174 | 12871 ft | 156 kts | 7° |
| 2026-04-11 20:56 | -18.14763 | -67.13071 | 12790 ft | 157 kts | 5° |
| 2026-04-11 20:56 | -18.13699 | -67.12956 | 12861 ft | 152 kts | 7° |
| 2026-04-11 20:56 | -18.12641 | -67.12781 | 12861 ft | 154 kts | 9° |
| 2026-04-11 20:56 | -18.11580 | -67.12548 | 12874 ft | 153 kts | 17° |
| 2026-04-11 20:57 | -18.10563 | -67.12174 | 12885 ft | 153 kts | 24° |
| 2026-04-11 20:57 | -18.09604 | -67.11707 | 12969 ft | 151 kts | 28° |
| 2026-04-11 20:57 | -18.08585 | -67.11197 | 12904 ft | 157 kts | 27° |
| 2026-04-11 20:57 | -18.07574 | -67.10740 | 12808 ft | 158 kts | 23° |
| 2026-04-11 20:58 | -18.06534 | -67.10321 | 12769 ft | 156 kts | 21° |
| 2026-04-11 20:58 | -18.05529 | -67.09919 | 12798 ft | 153 kts | 23° |
| 2026-04-11 20:58 | -18.04519 | -67.09530 | 12796 ft | 153 kts | 19° |
| 2026-04-11 20:58 | -18.03488 | -67.09216 | 12798 ft | 154 kts | 17° |
| 2026-04-11 20:59 | -18.02433 | -67.08967 | 12815 ft | 153 kts | 13° |
| 2026-04-11 20:59 | -18.01383 | -67.08735 | 12876 ft | 151 kts | 13° |
| 2026-04-11 20:59 | -18.00391 | -67.08484 | 13050 ft | 142 kts | 16° |
| 2026-04-11 20:59 | -17.99459 | -67.08277 | 13120 ft | 128 kts | 1° |
| 2026-04-11 21:00 | -17.98626 | -67.08167 | 13097 ft | 107 kts | 8° |
| 2026-04-11 21:00 | -17.97953 | -67.08035 | 13026 ft | 92 kts | 14° |
| 2026-04-11 21:00 | -17.97335 | -67.07918 | 12828 ft | 87 kts | 13° |
| 2026-04-11 21:00 | -17.96782 | -67.07836 | 12693 ft | 73 kts | 6° |
| 2026-04-11 21:01 | -17.96389 | -67.07797 | 12413 ft | 54 kts | 5° |
| 2026-04-11 21:01 | -17.96168 | -67.07782 | 12227 ft | 12 kts | 283° |
| 2026-04-11 21:01 | -17.96160 | -67.07820 | 12192 ft | 0 kts | 281° |